createdAt,value
2022-09-23T00:01:03.543Z,25.95
2022-09-23T00:03:31.914Z,26.27
2022-09-23T00:06:03.490Z,27.63
2022-09-23T00:08:30.528Z,23.75
2022-09-23T00:10:58.070Z,25.63
2022-09-23T00:13:25.490Z,25.13
2022-09-23T00:15:52.148Z,27.10
2022-09-23T00:18:20.575Z,23.60
2022-09-23T00:20:47.858Z,22.73
2022-09-23T00:23:14.416Z,22.33
2022-09-23T00:25:40.862Z,22.20
2022-09-23T00:28:07.313Z,23.15
2022-09-23T00:30:33.857Z,20.63
2022-09-23T00:33:00.453Z,21.63
2022-09-23T00:35:27.084Z,21.80
2022-09-23T00:37:53.539Z,20.58
2022-09-23T00:40:20.885Z,21.13
2022-09-23T00:42:49.866Z,20.08
2022-09-23T00:45:16.973Z,21.73
2022-09-23T00:47:56.559Z,22.30
2022-09-23T00:50:42.828Z,20.67
2022-09-23T00:53:15.525Z,22.75
2022-09-23T00:55:45.829Z,19.63
2022-09-23T00:58:15.686Z,22.17
2022-09-23T01:00:42.693Z,21.58
2022-09-23T01:03:09.523Z,22.00
2022-09-23T01:05:36.691Z,20.35
2022-09-23T01:08:04.853Z,20.52
2022-09-23T01:10:57.061Z,19.45
2022-09-23T01:13:26.731Z,23.27
2022-09-23T01:16:08.658Z,20.33
2022-09-23T01:18:49.009Z,23.17
2022-09-23T01:21:25.479Z,20.30
2022-09-23T01:24:18.970Z,19.55
2022-09-23T01:27:10.026Z,19.67
2022-09-23T01:30:14.049Z,22.38
2022-09-23T01:32:51.296Z,21.33
2022-09-23T01:35:34.258Z,21.48
2022-09-23T01:38:13.066Z,21.52
2022-09-23T01:41:10.277Z,22.60
2022-09-23T01:44:00.154Z,20.90
2022-09-23T01:46:32.951Z,19.30
2022-09-23T01:49:11.350Z,18.20
2022-09-23T01:51:42.684Z,17.27
2022-09-23T01:54:19.847Z,18.75
2022-09-23T01:56:52.414Z,18.98
2022-09-23T01:59:26.579Z,17.80
2022-09-23T02:02:22.034Z,17.55
2022-09-23T02:05:10.618Z,17.58
2022-09-23T02:07:48.243Z,17.45
2022-09-23T02:10:21.536Z,20.00
2022-09-23T02:12:52.333Z,18.95
2022-09-23T02:15:27.443Z,18.63
2022-09-23T02:18:05.342Z,18.23
2022-09-23T02:20:36.616Z,19.08
2022-09-23T02:23:08.423Z,20.05
2022-09-23T02:25:46.945Z,17.33
2022-09-23T02:28:25.136Z,21.42
2022-09-23T02:31:07.660Z,18.15
2022-09-23T02:33:43.337Z,17.00
2022-09-23T02:36:38.418Z,17.80
2022-09-23T02:39:10.867Z,20.15
2022-09-23T02:41:44.670Z,17.13
2022-09-23T02:44:17.822Z,19.42
2022-09-23T02:46:44.969Z,18.52
2022-09-23T02:49:23.169Z,17.15
2022-09-23T02:51:51.012Z,16.75
2022-09-23T02:54:20.922Z,17.30
2022-09-23T02:56:50.183Z,19.02
2022-09-23T02:59:19.576Z,17.60
2022-09-23T03:02:13.520Z,20.67
2022-09-23T03:04:52.310Z,21.67
2022-09-23T03:07:21.788Z,22.38
2022-09-23T03:09:57.455Z,18.50
2022-09-23T03:12:39.201Z,20.45
2022-09-23T03:15:12.281Z,18.65
2022-09-23T03:17:49.864Z,18.60
2022-09-23T03:20:34.151Z,17.90
2022-09-23T03:23:06.634Z,18.20
2022-09-23T03:25:38.910Z,20.65
2022-09-23T03:28:08.562Z,18.48
2022-09-23T03:30:36.593Z,19.83
2022-09-23T03:33:09.268Z,19.60
2022-09-23T03:36:01.014Z,18.27
2022-09-23T03:38:35.330Z,18.27
2022-09-23T03:41:04.165Z,18.35
2022-09-23T03:43:34.077Z,18.45
2022-09-23T03:46:05.367Z,18.05
2022-09-23T03:48:31.907Z,19.10
2022-09-23T03:50:58.776Z,19.70
2022-09-23T03:53:25.313Z,18.98
2022-09-23T03:56:03.324Z,19.40
2022-09-23T03:58:29.900Z,17.35
2022-09-23T04:00:58.324Z,18.67
2022-09-23T04:05:55.812Z,16.30
2022-09-23T04:08:22.478Z,16.67
2022-09-23T04:10:54.627Z,16.95
2022-09-23T04:13:21.281Z,18.00
2022-09-23T04:15:50.123Z,16.55
2022-09-23T04:18:16.570Z,17.42
2022-09-23T04:20:43.141Z,15.35
2022-09-23T04:23:09.637Z,16.77
2022-09-23T04:25:36.118Z,19.48
2022-09-23T04:28:02.680Z,16.85
2022-09-23T04:30:29.112Z,17.10
2022-09-23T04:32:55.587Z,16.30
2022-09-23T04:35:22.049Z,18.20
2022-09-23T04:37:48.795Z,17.10
2022-09-23T04:40:15.525Z,17.92
2022-09-23T04:42:42.010Z,18.27
2022-09-23T04:45:08.804Z,19.77
2022-09-23T04:47:35.363Z,17.35
2022-09-23T04:50:01.914Z,20.10
2022-09-23T04:52:31.139Z,19.40
2022-09-23T04:54:57.650Z,20.23
2022-09-23T04:57:24.605Z,20.73
2022-09-23T04:59:51.203Z,18.88
2022-09-23T05:02:17.630Z,17.55
2022-09-23T05:04:44.554Z,16.38
2022-09-23T05:07:11.736Z,18.08
2022-09-23T05:09:38.800Z,19.27
2022-09-23T05:12:05.545Z,19.45
2022-09-23T05:14:31.957Z,21.35
2022-09-23T05:16:58.455Z,18.50
2022-09-23T05:19:24.892Z,19.80
2022-09-23T05:21:51.409Z,20.77
2022-09-23T05:24:17.942Z,18.73
2022-09-23T05:26:44.473Z,19.58
2022-09-23T05:29:11.276Z,21.00
2022-09-23T05:31:37.829Z,20.30
2022-09-23T05:34:05.427Z,20.25
2022-09-23T05:36:38.434Z,20.58
2022-09-23T05:39:06.562Z,19.30
2022-09-23T05:41:33.973Z,20.67
2022-09-23T05:44:00.930Z,20.50
2022-09-23T05:46:29.851Z,15.60
2022-09-23T05:49:02.157Z,19.45
2022-09-23T05:51:31.118Z,20.15
2022-09-23T05:53:59.178Z,19.35
2022-09-23T05:56:27.550Z,18.55
2022-09-23T06:01:27.894Z,19.98
2022-09-23T06:03:56.191Z,21.50
2022-09-23T06:06:39.967Z,19.88
2022-09-23T06:09:09.914Z,19.77
2022-09-23T06:11:37.174Z,18.30
2022-09-23T06:14:04.243Z,20.40
2022-09-23T06:16:35.553Z,20.67
2022-09-23T06:19:06.152Z,23.65
2022-09-23T06:21:37.792Z,20.60
2022-09-23T06:24:05.210Z,22.52
2022-09-23T06:26:35.106Z,22.90
2022-09-23T06:29:03.005Z,20.52
2022-09-23T06:31:29.824Z,23.33
2022-09-23T06:34:07.194Z,20.83
2022-09-23T06:36:44.004Z,21.98
2022-09-23T06:39:10.786Z,20.00
2022-09-23T06:41:37.870Z,22.98
2022-09-23T06:44:04.386Z,21.88
2022-09-23T06:46:31.846Z,21.25
2022-09-23T06:48:58.548Z,20.55
2022-09-23T06:51:25.107Z,21.10
2022-09-23T06:53:51.583Z,21.77
2022-09-23T06:56:19.902Z,20.67
2022-09-23T07:01:16.282Z,24.98
2022-09-23T07:03:44.316Z,22.75
2022-09-23T07:06:11.477Z,22.95
2022-09-23T07:08:38.265Z,24.52
2022-09-23T07:11:07.267Z,23.33
2022-09-23T07:13:34.307Z,22.30
2022-09-23T07:16:02.190Z,22.55
2022-09-23T07:18:36.243Z,22.00
2022-09-23T07:21:15.204Z,23.55
2022-09-23T07:23:43.490Z,24.13
2022-09-23T07:26:10.298Z,23.90
2022-09-23T07:28:37.203Z,24.10
2022-09-23T07:31:09.771Z,21.17
2022-09-23T07:33:38.550Z,20.23
2022-09-23T07:36:18.212Z,21.40
2022-09-23T07:38:46.617Z,21.35
2022-09-23T07:41:18.833Z,21.55
2022-09-23T07:43:46.416Z,20.75
2022-09-23T07:46:16.846Z,19.95
2022-09-23T07:48:45.718Z,18.83
2022-09-23T07:51:36.988Z,24.60
2022-09-23T07:54:09.934Z,19.85
2022-09-23T07:56:37.842Z,20.40
2022-09-23T07:59:08.505Z,21.27
2022-09-23T08:01:38.229Z,19.77
2022-09-23T08:04:28.224Z,18.30
2022-09-23T08:06:58.076Z,18.33
2022-09-23T08:09:28.632Z,19.60
2022-09-23T08:11:55.255Z,18.85
2022-09-23T08:14:25.266Z,19.92
2022-09-23T08:16:52.378Z,19.17
2022-09-23T08:19:19.139Z,18.15
2022-09-23T08:21:47.524Z,19.30
2022-09-23T08:24:18.596Z,16.30
2022-09-23T08:26:46.177Z,20.40
2022-09-23T08:29:17.660Z,17.30
2022-09-23T08:31:44.457Z,18.48
2022-09-23T08:34:11.037Z,19.30
2022-09-23T08:36:38.000Z,18.77
2022-09-23T08:39:05.774Z,15.48
2022-09-23T08:41:43.691Z,17.92
2022-09-23T08:44:19.588Z,16.35
2022-09-23T08:47:12.190Z,16.73
2022-09-23T08:49:45.001Z,16.52
2022-09-23T08:52:24.423Z,16.70
2022-09-23T08:54:55.278Z,17.13
2022-09-23T08:58:26.530Z,15.70
2022-09-23T09:01:09.839Z,16.77
2022-09-23T09:03:44.695Z,16.08
2022-09-23T09:06:18.858Z,18.58
2022-09-23T09:11:16.906Z,14.35
2022-09-23T09:13:59.698Z,15.43
2022-09-23T09:16:59.570Z,15.00
2022-09-23T09:19:53.372Z,16.25
2022-09-23T09:22:27.232Z,17.00
2022-09-23T09:25:01.674Z,15.65
2022-09-23T09:27:28.414Z,18.00
2022-09-23T09:29:55.462Z,14.45
2022-09-23T09:33:01.266Z,14.73
2022-09-23T09:35:29.154Z,17.25
2022-09-23T09:37:55.922Z,15.80
2022-09-23T09:40:22.471Z,15.25
2022-09-23T09:42:50.456Z,17.02
2022-09-23T09:47:58.653Z,16.85
2022-09-23T09:50:45.062Z,14.55
2022-09-23T09:53:25.465Z,14.13
2022-09-23T09:56:05.530Z,16.42
2022-09-23T09:58:47.775Z,14.75
2022-09-23T10:01:31.170Z,14.43
2022-09-23T10:04:00.784Z,15.55
2022-09-23T10:06:30.273Z,14.48
2022-09-23T10:09:02.821Z,14.45
2022-09-23T10:11:30.385Z,16.83
2022-09-23T10:14:02.919Z,14.90
2022-09-23T10:16:34.331Z,15.07
2022-09-23T10:19:03.275Z,14.77
2022-09-23T10:21:36.224Z,11.05
2022-09-23T10:24:05.932Z,12.45
2022-09-23T10:26:51.208Z,13.27
2022-09-23T10:29:55.318Z,12.20
2022-09-23T10:32:25.739Z,12.13
2022-09-23T10:34:58.670Z,11.77
2022-09-23T10:37:32.622Z,11.93
2022-09-23T10:40:19.139Z,12.35
2022-09-23T10:43:42.199Z,13.88
2022-09-23T10:46:36.808Z,10.43
2022-09-23T10:49:12.274Z,11.57
2022-09-23T10:51:44.863Z,13.82
2022-09-23T10:54:38.845Z,12.25
2022-09-23T10:57:32.377Z,13.25
2022-09-23T11:00:04.065Z,11.75
2022-09-23T11:02:45.190Z,11.25
2022-09-23T11:05:38.212Z,13.20
2022-09-23T11:08:47.295Z,11.60
2022-09-23T11:11:16.695Z,11.82
2022-09-23T11:13:55.220Z,11.63
2022-09-23T11:16:43.402Z,10.68
2022-09-23T11:19:33.762Z,11.68
2022-09-23T11:22:06.034Z,11.25
2022-09-23T11:24:58.403Z,11.15
2022-09-23T11:27:43.577Z,12.75
2022-09-23T11:30:13.090Z,12.63
2022-09-23T11:33:14.288Z,11.95
2022-09-23T11:35:55.839Z,11.55
2022-09-23T11:38:45.648Z,10.85
2022-09-23T11:41:23.524Z,11.27
2022-09-23T11:43:56.655Z,14.75
2022-09-23T11:46:25.967Z,13.25
2022-09-23T11:49:15.874Z,11.80
2022-09-23T11:51:57.464Z,12.63
2022-09-23T11:54:29.786Z,12.15
2022-09-23T11:57:03.933Z,13.52
2022-09-23T12:02:27.004Z,11.18
2022-09-23T12:05:09.406Z,11.05
2022-09-23T12:07:58.054Z,12.13
2022-09-23T12:10:44.848Z,9.57
2022-09-23T12:13:38.559Z,9.98
2022-09-23T12:16:25.714Z,10.55
2022-09-23T12:19:04.541Z,9.25
2022-09-23T12:21:49.756Z,11.18
2022-09-23T12:24:36.201Z,9.60
2022-09-23T12:27:09.121Z,10.60
2022-09-23T12:29:37.938Z,8.50
2022-09-23T12:32:10.029Z,7.88
2022-09-23T12:34:40.557Z,9.45
2022-09-23T12:37:07.184Z,9.02
2022-09-23T12:39:37.290Z,8.52
2022-09-23T12:42:10.839Z,7.82
2022-09-23T12:44:41.440Z,8.38
2022-09-23T12:47:21.112Z,8.88
2022-09-23T12:49:49.538Z,10.82
2022-09-23T12:52:16.068Z,7.53
2022-09-23T12:54:50.379Z,8.75
2022-09-23T12:57:35.002Z,7.82
2022-09-23T13:00:13.760Z,8.43
2022-09-23T13:03:12.151Z,7.75
2022-09-23T13:06:10.148Z,11.18
2022-09-23T13:08:41.665Z,7.65
2022-09-23T13:11:20.474Z,7.68
2022-09-23T13:13:49.916Z,7.60
2022-09-23T13:16:26.883Z,8.18
2022-09-23T13:18:58.471Z,8.10
2022-09-23T13:21:43.089Z,7.80
2022-09-23T13:24:19.427Z,8.15
2022-09-23T13:27:10.433Z,8.70
2022-09-23T13:29:42.319Z,8.95
2022-09-23T13:32:20.748Z,7.60
2022-09-23T13:34:58.194Z,7.60
2022-09-23T13:37:31.442Z,8.63
2022-09-23T13:40:28.349Z,9.15
2022-09-23T13:43:08.983Z,7.95
2022-09-23T13:45:41.317Z,7.90
2022-09-23T13:48:13.469Z,7.32
2022-09-23T13:50:45.059Z,7.55
2022-09-23T13:53:16.666Z,9.55
2022-09-23T13:55:43.492Z,9.13
2022-09-23T13:58:21.427Z,12.27
2022-09-23T14:00:49.579Z,10.48
2022-09-23T14:03:24.747Z,12.63
2022-09-23T14:05:52.710Z,9.65
2022-09-23T14:08:19.821Z,8.10
2022-09-23T14:10:46.924Z,7.32
2022-09-23T14:13:33.997Z,9.43
2022-09-23T14:16:04.133Z,8.90
2022-09-23T14:18:40.051Z,9.60
2022-09-23T14:21:23.191Z,8.32
2022-09-23T14:23:49.597Z,10.05
2022-09-23T14:26:16.210Z,10.73
2022-09-23T14:28:42.857Z,7.25
2022-09-23T14:31:09.707Z,7.93
2022-09-23T14:33:40.858Z,9.23
2022-09-23T14:36:35.833Z,7.90
2022-09-23T14:39:12.635Z,8.05
2022-09-23T14:41:45.469Z,9.70
2022-09-23T14:44:22.077Z,8.57
2022-09-23T14:46:59.539Z,8.40
2022-09-23T14:49:27.021Z,8.70
2022-09-23T14:52:03.121Z,10.85
2022-09-23T14:54:35.543Z,10.00
2022-09-23T14:57:17.375Z,10.20
2022-09-23T14:59:54.390Z,10.45
2022-09-23T15:02:31.149Z,11.85
2022-09-23T15:05:36.066Z,11.65
2022-09-23T15:08:02.976Z,10.70
2022-09-23T15:10:37.463Z,13.10
2022-09-23T15:13:05.663Z,11.15
2022-09-23T15:15:32.622Z,11.95
2022-09-23T15:18:26.546Z,12.70
2022-09-23T15:21:00.865Z,11.27
2022-09-23T15:23:39.145Z,11.60
2022-09-23T15:26:09.866Z,11.75
2022-09-23T15:28:36.270Z,12.23
2022-09-23T15:31:03.173Z,11.05
2022-09-23T15:33:29.911Z,13.85
2022-09-23T15:35:56.529Z,10.85
2022-09-23T15:38:23.742Z,11.98
2022-09-23T15:40:50.471Z,14.10
2022-09-23T15:43:23.260Z,15.52
2022-09-23T15:45:50.393Z,12.65
2022-09-23T15:48:24.688Z,13.05
2022-09-23T15:50:51.842Z,11.40
2022-09-23T15:53:24.533Z,12.25
2022-09-23T15:55:51.591Z,13.18
2022-09-23T15:58:22.558Z,12.63
2022-09-23T16:00:56.583Z,12.07
2022-09-23T16:03:30.786Z,14.88
2022-09-23T16:06:02.227Z,14.93
2022-09-23T16:08:29.544Z,13.65
2022-09-23T16:10:56.459Z,15.73
2022-09-23T16:13:23.075Z,13.38
2022-09-23T16:15:49.634Z,15.13
2022-09-23T16:18:16.197Z,13.00
2022-09-23T16:20:44.690Z,13.88
2022-09-23T16:23:38.557Z,13.70
2022-09-23T16:26:11.207Z,13.95
2022-09-23T16:28:37.777Z,14.38
2022-09-23T16:31:04.594Z,14.25
2022-09-23T16:33:31.250Z,15.48
2022-09-23T16:36:00.802Z,15.43
2022-09-23T16:38:28.959Z,15.02
2022-09-23T16:40:59.413Z,15.88
2022-09-23T16:43:32.590Z,16.45
2022-09-23T16:45:59.238Z,18.23
2022-09-23T16:48:25.813Z,17.33
2022-09-23T16:50:53.983Z,17.38
2022-09-23T16:53:20.475Z,16.42
2022-09-23T16:55:46.924Z,20.30
2022-09-23T16:58:13.371Z,17.48
2022-09-23T17:00:58.399Z,17.48
2022-09-23T17:03:40.881Z,20.52
2022-09-23T17:06:13.084Z,24.58
2022-09-23T17:08:40.781Z,19.27
2022-09-23T17:11:08.356Z,19.42
2022-09-23T17:13:35.005Z,20.85
2022-09-23T17:16:02.338Z,20.85
2022-09-23T17:18:29.790Z,22.80
2022-09-23T17:20:58.271Z,24.75
2022-09-23T17:23:26.633Z,22.48
2022-09-23T17:25:53.125Z,24.27
2022-09-23T17:28:19.880Z,22.10
2022-09-23T17:30:46.379Z,22.73
2022-09-23T17:33:13.706Z,19.95
2022-09-23T17:35:41.062Z,22.67
2022-09-23T17:38:07.551Z,26.85
2022-09-23T17:40:40.430Z,24.48
2022-09-23T17:43:07.970Z,27.40
2022-09-23T17:45:37.514Z,22.77
2022-09-23T17:48:04.141Z,23.10
2022-09-23T17:50:31.256Z,25.25
2022-09-23T17:53:00.924Z,23.52
2022-09-23T17:55:27.442Z,24.77
2022-09-23T17:57:53.958Z,24.55
2022-09-23T18:00:20.465Z,23.63
2022-09-23T18:02:50.288Z,22.45
2022-09-23T18:05:16.952Z,23.52
2022-09-23T18:07:43.475Z,24.63
2022-09-23T18:10:10.125Z,23.65
2022-09-23T18:12:36.564Z,25.38
2022-09-23T18:15:03.270Z,25.35
2022-09-23T18:17:29.971Z,24.92
2022-09-23T18:19:56.424Z,32.47
2022-09-23T18:22:22.925Z,25.40
2022-09-23T18:24:49.396Z,27.80
2022-09-23T18:27:15.907Z,29.23
2022-09-23T18:29:42.410Z,28.10
2022-09-23T18:32:13.313Z,30.58
2022-09-23T18:34:40.586Z,28.10
2022-09-23T18:37:15.366Z,28.05
2022-09-23T18:39:42.642Z,28.15
2022-09-23T18:42:09.234Z,29.48
2022-09-23T18:44:35.981Z,26.27
2022-09-23T18:47:02.472Z,28.35
2022-09-23T18:49:47.321Z,27.30
2022-09-23T18:52:13.803Z,30.40
2022-09-23T18:54:40.319Z,30.60
2022-09-23T18:57:06.837Z,29.30
2022-09-23T18:59:33.398Z,30.13
2022-09-23T19:02:00.043Z,30.88
2022-09-23T19:04:27.373Z,27.63
2022-09-23T19:06:56.395Z,28.40
2022-09-23T19:09:23.568Z,27.45
2022-09-23T19:11:52.720Z,28.13
2022-09-23T19:14:19.548Z,30.35
2022-09-23T19:16:48.824Z,30.77
2022-09-23T19:19:15.407Z,28.70
2022-09-23T19:21:41.894Z,28.95
2022-09-23T19:24:08.580Z,28.05
2022-09-23T19:26:38.088Z,29.05
2022-09-23T19:29:06.170Z,28.85
2022-09-23T19:34:10.116Z,28.52
2022-09-23T19:36:38.934Z,30.60
2022-09-23T19:39:14.482Z,30.60
2022-09-23T19:41:41.052Z,28.65
2022-09-23T19:44:08.011Z,29.98
2022-09-23T19:46:37.148Z,28.90
2022-09-23T19:49:05.257Z,31.63
2022-09-23T19:51:34.019Z,31.27
2022-09-23T19:54:05.178Z,30.88
2022-09-23T19:56:33.036Z,30.70
2022-09-23T19:59:00.806Z,31.48
2022-09-23T20:01:29.444Z,30.70
2022-09-23T20:03:56.375Z,29.02
2022-09-23T20:06:23.296Z,29.77
2022-09-23T20:08:50.077Z,30.30
2022-09-23T20:11:24.837Z,31.65
2022-09-23T20:14:00.862Z,31.10
2022-09-23T20:16:29.914Z,31.27
2022-09-23T20:18:56.580Z,32.10
2022-09-23T20:21:23.054Z,32.63
2022-09-23T20:23:49.582Z,31.75
2022-09-23T20:26:34.421Z,33.13
2022-09-23T20:29:01.367Z,34.28
2022-09-23T20:31:28.790Z,33.92
2022-09-23T20:34:00.381Z,35.03
2022-09-23T20:36:29.197Z,32.47
2022-09-23T20:38:57.026Z,33.53
2022-09-23T20:41:23.548Z,35.00
2022-09-23T20:43:54.224Z,33.30
2022-09-23T20:46:23.431Z,34.00
2022-09-23T20:48:50.410Z,32.05
2022-09-23T20:51:16.906Z,35.40
2022-09-23T20:53:45.648Z,32.35
2022-09-23T20:56:13.309Z,33.53
2022-09-23T20:58:40.316Z,36.85
2022-09-23T21:01:11.583Z,35.17
2022-09-23T21:03:40.311Z,34.25
2022-09-23T21:06:09.229Z,32.80
2022-09-23T21:08:37.090Z,34.15
2022-09-23T21:11:06.015Z,33.75
2022-09-23T21:13:33.604Z,30.38
2022-09-23T21:16:08.190Z,31.38
2022-09-23T21:18:38.196Z,33.78
2022-09-23T21:21:06.262Z,30.90
2022-09-23T21:26:00.659Z,29.90
2022-09-23T21:28:33.480Z,31.70
2022-09-23T21:31:11.449Z,30.50
2022-09-23T21:33:37.994Z,33.10
2022-09-23T21:36:06.871Z,31.27
2022-09-23T21:38:37.443Z,33.05
2022-09-23T21:41:06.803Z,34.97
2022-09-23T21:43:35.975Z,32.50
2022-09-23T21:46:04.309Z,33.20
2022-09-23T21:48:32.856Z,32.08
2022-09-23T21:51:08.254Z,32.38
2022-09-23T21:53:39.115Z,34.08
2022-09-23T21:56:15.733Z,29.60
2022-09-23T21:58:45.761Z,33.80
2022-09-23T22:01:21.462Z,32.40
2022-09-23T22:03:59.192Z,33.63
2022-09-23T22:06:30.491Z,29.17
2022-09-23T22:09:03.617Z,30.65
2022-09-23T22:11:51.648Z,31.77
2022-09-23T22:14:19.966Z,33.72
2022-09-23T22:16:46.809Z,32.58
2022-09-23T22:19:15.083Z,33.80
2022-09-23T22:21:44.063Z,35.08
2022-09-23T22:24:12.530Z,35.20
2022-09-23T22:26:44.394Z,32.85
2022-09-23T22:29:31.739Z,33.58
2022-09-23T22:32:18.032Z,37.70
2022-09-23T22:34:50.578Z,32.60
2022-09-23T22:37:26.451Z,36.25
2022-09-23T22:39:53.478Z,35.15
2022-09-23T22:42:23.732Z,36.42
2022-09-23T22:44:51.309Z,35.83
2022-09-23T22:47:19.077Z,34.38
2022-09-23T22:49:49.016Z,33.33
2022-09-23T22:52:21.189Z,34.83
2022-09-23T22:54:47.861Z,35.10
2022-09-23T22:57:15.262Z,35.85
2022-09-23T22:59:43.493Z,35.20
2022-09-23T23:02:09.997Z,36.45
2022-09-23T23:04:37.192Z,35.90
2022-09-23T23:07:04.580Z,37.05
2022-09-23T23:09:31.330Z,35.92
2022-09-23T23:11:57.797Z,36.00
2022-09-23T23:14:24.759Z,35.83
2022-09-23T23:16:51.275Z,37.97
2022-09-23T23:19:19.234Z,39.38
2022-09-23T23:21:46.123Z,40.50
2022-09-23T23:24:21.936Z,36.67
2022-09-23T23:26:48.929Z,39.03
2022-09-23T23:29:17.423Z,42.25
2022-09-23T23:31:44.124Z,38.70
2022-09-23T23:34:19.208Z,41.38
2022-09-23T23:36:47.961Z,36.50
2022-09-23T23:39:14.918Z,41.47
2022-09-23T23:41:41.680Z,37.63
2022-09-23T23:44:08.886Z,42.30
2022-09-23T23:46:37.378Z,42.00
2022-09-23T23:49:04.817Z,38.65
2022-09-23T23:51:31.392Z,40.00
2022-09-23T23:53:58.735Z,36.38
2022-09-23T23:56:26.368Z,42.67
2022-09-23T23:58:57.676Z,37.95
